sensor_id;sensor_type;location;lat;lon;timestamp;P1;durP1;ratioP1;P2;durP2;ratioP2
4519;SDS011;2272;49.226;8.108;2023-06-14T00:01:41;29.63;;;6.17;;
4519;SDS011;2272;49.226;8.108;2023-06-14T00:04:10;7.10;;;6.20;;
4519;SDS011;2272;49.226;8.108;2023-06-14T00:06:37;8.63;;;6.47;;
4519;SDS011;2272;49.226;8.108;2023-06-14T00:09:04;8.10;;;6.80;;
4519;SDS011;2272;49.226;8.108;2023-06-14T00:11:34;11.57;;;6.47;;
4519;SDS011;2272;49.226;8.108;2023-06-14T00:14:01;6.73;;;5.50;;
4519;SDS011;2272;49.226;8.108;2023-06-14T00:16:28;11.30;;;5.53;;
4519;SDS011;2272;49.226;8.108;2023-06-14T00:18:55;8.30;;;5.60;;
4519;SDS011;2272;49.226;8.108;2023-06-14T00:21:22;12.83;;;6.20;;
4519;SDS011;2272;49.226;8.108;2023-06-14T00:23:49;7.93;;;5.43;;
4519;SDS011;2272;49.226;8.108;2023-06-14T00:26:16;13.03;;;5.43;;
4519;SDS011;2272;49.226;8.108;2023-06-14T00:28:44;6.10;;;4.90;;
4519;SDS011;2272;49.226;8.108;2023-06-14T00:31:10;7.87;;;5.80;;
4519;SDS011;2272;49.226;8.108;2023-06-14T00:33:37;7.30;;;5.70;;
4519;SDS011;2272;49.226;8.108;2023-06-14T00:36:04;24.67;;;5.20;;
4519;SDS011;2272;49.226;8.108;2023-06-14T00:38:31;10.60;;;6.00;;
4519;SDS011;2272;49.226;8.108;2023-06-14T00:40:57;6.03;;;5.40;;
4519;SDS011;2272;49.226;8.108;2023-06-14T00:43:24;9.70;;;5.20;;
4519;SDS011;2272;49.226;8.108;2023-06-14T00:45:52;5.87;;;5.37;;
4519;SDS011;2272;49.226;8.108;2023-06-14T00:48:19;19.13;;;7.87;;
4519;SDS011;2272;49.226;8.108;2023-06-14T00:50:46;7.60;;;5.23;;
4519;SDS011;2272;49.226;8.108;2023-06-14T00:53:13;11.40;;;5.60;;
4519;SDS011;2272;49.226;8.108;2023-06-14T00:55:42;7.23;;;5.10;;
4519;SDS011;2272;49.226;8.108;2023-06-14T00:58:09;13.10;;;5.67;;
4519;SDS011;2272;49.226;8.108;2023-06-14T01:00:36;8.47;;;6.60;;
4519;SDS011;2272;49.226;8.108;2023-06-14T01:03:04;7.70;;;4.90;;
4519;SDS011;2272;49.226;8.108;2023-06-14T01:05:31;9.63;;;6.13;;
4519;SDS011;2272;49.226;8.108;2023-06-14T01:08:04;5.50;;;5.00;;
4519;SDS011;2272;49.226;8.108;2023-06-14T01:10:40;6.50;;;5.63;;
4519;SDS011;2272;49.226;8.108;2023-06-14T01:13:18;16.70;;;6.37;;
4519;SDS011;2272;49.226;8.108;2023-06-14T01:15:48;8.10;;;6.23;;
4519;SDS011;2272;49.226;8.108;2023-06-14T01:18:18;23.73;;;6.23;;
4519;SDS011;2272;49.226;8.108;2023-06-14T01:20:45;11.43;;;5.43;;
4519;SDS011;2272;49.226;8.108;2023-06-14T01:23:15;5.97;;;5.40;;
4519;SDS011;2272;49.226;8.108;2023-06-14T01:25:42;5.47;;;4.97;;
4519;SDS011;2272;49.226;8.108;2023-06-14T01:28:10;11.30;;;5.73;;
4519;SDS011;2272;49.226;8.108;2023-06-14T01:30:39;6.87;;;6.20;;
4519;SDS011;2272;49.226;8.108;2023-06-14T01:33:10;9.67;;;5.50;;
4519;SDS011;2272;49.226;8.108;2023-06-14T01:35:38;15.73;;;6.00;;
4519;SDS011;2272;49.226;8.108;2023-06-14T01:38:05;15.10;;;5.97;;
4519;SDS011;2272;49.226;8.108;2023-06-14T01:40:34;7.63;;;6.00;;
4519;SDS011;2272;49.226;8.108;2023-06-14T01:43:01;13.67;;;5.63;;
4519;SDS011;2272;49.226;8.108;2023-06-14T01:45:29;11.27;;;6.53;;
4519;SDS011;2272;49.226;8.108;2023-06-14T01:47:57;6.97;;;5.90;;
4519;SDS011;2272;49.226;8.108;2023-06-14T01:50:24;8.80;;;5.97;;
4519;SDS011;2272;49.226;8.108;2023-06-14T01:52:55;6.50;;;5.90;;
4519;SDS011;2272;49.226;8.108;2023-06-14T01:55:21;15.30;;;5.27;;
4519;SDS011;2272;49.226;8.108;2023-06-14T01:57:51;8.13;;;5.27;;
4519;SDS011;2272;49.226;8.108;2023-06-14T02:00:18;6.93;;;5.13;;
4519;SDS011;2272;49.226;8.108;2023-06-14T02:02:46;11.83;;;5.60;;
4519;SDS011;2272;49.226;8.108;2023-06-14T02:05:14;9.67;;;5.80;;
4519;SDS011;2272;49.226;8.108;2023-06-14T02:07:43;6.70;;;5.90;;
4519;SDS011;2272;49.226;8.108;2023-06-14T02:10:10;7.70;;;6.33;;
4519;SDS011;2272;49.226;8.108;2023-06-14T02:12:37;6.63;;;5.63;;
4519;SDS011;2272;49.226;8.108;2023-06-14T02:15:06;6.97;;;6.33;;
4519;SDS011;2272;49.226;8.108;2023-06-14T02:17:33;9.43;;;6.17;;
4519;SDS011;2272;49.226;8.108;2023-06-14T02:20:00;6.80;;;6.10;;
4519;SDS011;2272;49.226;8.108;2023-06-14T02:22:30;6.63;;;6.07;;
4519;SDS011;2272;49.226;8.108;2023-06-14T02:24:56;8.10;;;5.67;;
4519;SDS011;2272;49.226;8.108;2023-06-14T02:27:23;6.27;;;5.77;;
4519;SDS011;2272;49.226;8.108;2023-06-14T02:29:50;7.40;;;6.10;;
4519;SDS011;2272;49.226;8.108;2023-06-14T02:32:18;5.50;;;5.00;;
4519;SDS011;2272;49.226;8.108;2023-06-14T02:34:45;6.23;;;5.60;;
4519;SDS011;2272;49.226;8.108;2023-06-14T02:37:14;5.57;;;5.07;;
4519;SDS011;2272;49.226;8.108;2023-06-14T02:39:41;14.33;;;7.23;;
4519;SDS011;2272;49.226;8.108;2023-06-14T02:42:08;7.43;;;5.83;;
4519;SDS011;2272;49.226;8.108;2023-06-14T02:44:35;7.17;;;5.50;;
4519;SDS011;2272;49.226;8.108;2023-06-14T02:47:02;9.90;;;5.67;;
4519;SDS011;2272;49.226;8.108;2023-06-14T02:49:30;13.07;;;5.60;;
4519;SDS011;2272;49.226;8.108;2023-06-14T02:51:57;12.57;;;6.50;;
4519;SDS011;2272;49.226;8.108;2023-06-14T02:54:23;8.40;;;5.60;;
4519;SDS011;2272;49.226;8.108;2023-06-14T02:56:50;10.20;;;6.00;;
4519;SDS011;2272;49.226;8.108;2023-06-14T02:59:17;14.20;;;6.13;;
4519;SDS011;2272;49.226;8.108;2023-06-14T03:01:44;26.30;;;6.27;;
4519;SDS011;2272;49.226;8.108;2023-06-14T03:04:11;6.13;;;5.60;;
4519;SDS011;2272;49.226;8.108;2023-06-14T03:06:39;6.23;;;5.63;;
4519;SDS011;2272;49.226;8.108;2023-06-14T03:09:05;6.20;;;5.60;;
4519;SDS011;2272;49.226;8.108;2023-06-14T03:11:34;5.80;;;5.30;;
4519;SDS011;2272;49.226;8.108;2023-06-14T03:14:01;7.03;;;6.20;;
4519;SDS011;2272;49.226;8.108;2023-06-14T03:16:29;9.33;;;6.10;;
4519;SDS011;2272;49.226;8.108;2023-06-14T03:18:56;7.40;;;5.30;;
4519;SDS011;2272;49.226;8.108;2023-06-14T03:21:23;6.13;;;5.53;;
4519;SDS011;2272;49.226;8.108;2023-06-14T03:23:51;7.43;;;5.83;;
4519;SDS011;2272;49.226;8.108;2023-06-14T03:26:18;5.77;;;5.27;;
4519;SDS011;2272;49.226;8.108;2023-06-14T03:28:46;5.70;;;5.20;;
4519;SDS011;2272;49.226;8.108;2023-06-14T03:31:14;14.83;;;6.30;;
4519;SDS011;2272;49.226;8.108;2023-06-14T03:33:41;14.20;;;5.50;;
4519;SDS011;2272;49.226;8.108;2023-06-14T03:36:08;6.83;;;5.90;;
4519;SDS011;2272;49.226;8.108;2023-06-14T03:38:35;5.70;;;5.20;;
4519;SDS011;2272;49.226;8.108;2023-06-14T03:41:03;8.00;;;5.67;;
4519;SDS011;2272;49.226;8.108;2023-06-14T03:43:30;7.77;;;5.80;;
4519;SDS011;2272;49.226;8.108;2023-06-14T03:45:56;14.80;;;5.77;;
4519;SDS011;2272;49.226;8.108;2023-06-14T03:48:23;6.80;;;5.43;;
4519;SDS011;2272;49.226;8.108;2023-06-14T03:50:50;12.83;;;6.63;;
4519;SDS011;2272;49.226;8.108;2023-06-14T03:53:17;7.43;;;5.83;;
4519;SDS011;2272;49.226;8.108;2023-06-14T03:55:45;6.60;;;5.73;;
4519;SDS011;2272;49.226;8.108;2023-06-14T03:58:14;7.10;;;5.90;;
4519;SDS011;2272;49.226;8.108;2023-06-14T04:00:41;9.70;;;5.60;;
4519;SDS011;2272;49.226;8.108;2023-06-14T04:03:08;5.63;;;5.20;;
4519;SDS011;2272;49.226;8.108;2023-06-14T04:05:35;8.80;;;5.87;;
4519;SDS011;2272;49.226;8.108;2023-06-14T04:08:02;8.20;;;6.77;;
4519;SDS011;2272;49.226;8.108;2023-06-14T04:10:29;8.37;;;6.13;;
4519;SDS011;2272;49.226;8.108;2023-06-14T04:12:56;7.80;;;6.30;;
4519;SDS011;2272;49.226;8.108;2023-06-14T04:15:24;8.37;;;6.40;;
4519;SDS011;2272;49.226;8.108;2023-06-14T04:17:53;7.67;;;6.23;;
4519;SDS011;2272;49.226;8.108;2023-06-14T04:20:22;7.30;;;6.27;;
4519;SDS011;2272;49.226;8.108;2023-06-14T04:22:50;7.60;;;5.17;;
4519;SDS011;2272;49.226;8.108;2023-06-14T04:25:17;6.13;;;5.50;;
4519;SDS011;2272;49.226;8.108;2023-06-14T04:27:44;9.03;;;5.40;;
4519;SDS011;2272;49.226;8.108;2023-06-14T04:30:12;9.37;;;7.40;;
4519;SDS011;2272;49.226;8.108;2023-06-14T04:32:40;7.47;;;6.60;;
4519;SDS011;2272;49.226;8.108;2023-06-14T04:35:07;10.73;;;6.50;;
4519;SDS011;2272;49.226;8.108;2023-06-14T04:37:35;13.27;;;6.00;;
4519;SDS011;2272;49.226;8.108;2023-06-14T04:40:05;11.17;;;6.07;;
4519;SDS011;2272;49.226;8.108;2023-06-14T04:42:33;8.87;;;5.90;;
4519;SDS011;2272;49.226;8.108;2023-06-14T04:45:02;8.87;;;6.30;;
4519;SDS011;2272;49.226;8.108;2023-06-14T04:47:29;11.70;;;6.00;;
4519;SDS011;2272;49.226;8.108;2023-06-14T04:49:57;6.50;;;5.80;;
4519;SDS011;2272;49.226;8.108;2023-06-14T04:52:25;17.67;;;6.47;;
4519;SDS011;2272;49.226;8.108;2023-06-14T04:54:54;16.20;;;7.27;;
4519;SDS011;2272;49.226;8.108;2023-06-14T04:57:21;9.23;;;6.67;;
4519;SDS011;2272;49.226;8.108;2023-06-14T04:59:50;10.33;;;6.70;;
4519;SDS011;2272;49.226;8.108;2023-06-14T05:02:20;7.43;;;6.70;;
4519;SDS011;2272;49.226;8.108;2023-06-14T05:04:48;7.80;;;6.50;;
4519;SDS011;2272;49.226;8.108;2023-06-14T05:07:16;9.70;;;6.27;;
4519;SDS011;2272;49.226;8.108;2023-06-14T05:09:44;8.37;;;6.47;;
4519;SDS011;2272;49.226;8.108;2023-06-14T05:12:11;17.90;;;6.43;;
4519;SDS011;2272;49.226;8.108;2023-06-14T05:14:38;15.80;;;6.93;;
4519;SDS011;2272;49.226;8.108;2023-06-14T05:17:05;15.03;;;6.67;;
4519;SDS011;2272;49.226;8.108;2023-06-14T05:19:32;12.60;;;6.23;;
4519;SDS011;2272;49.226;8.108;2023-06-14T05:21:58;8.33;;;6.00;;
4519;SDS011;2272;49.226;8.108;2023-06-14T05:24:26;19.97;;;6.10;;
4519;SDS011;2272;49.226;8.108;2023-06-14T05:26:54;14.03;;;6.10;;
4519;SDS011;2272;49.226;8.108;2023-06-14T05:29:21;8.10;;;5.73;;
4519;SDS011;2272;49.226;8.108;2023-06-14T05:31:48;9.17;;;5.93;;
4519;SDS011;2272;49.226;8.108;2023-06-14T05:34:15;9.10;;;6.10;;
4519;SDS011;2272;49.226;8.108;2023-06-14T05:36:41;6.77;;;6.17;;
4519;SDS011;2272;49.226;8.108;2023-06-14T05:39:08;19.40;;;6.37;;
4519;SDS011;2272;49.226;8.108;2023-06-14T05:41:36;16.90;;;6.00;;
4519;SDS011;2272;49.226;8.108;2023-06-14T05:44:03;10.50;;;5.70;;
4519;SDS011;2272;49.226;8.108;2023-06-14T05:46:30;25.03;;;5.90;;
4519;SDS011;2272;49.226;8.108;2023-06-14T05:48:57;7.90;;;5.80;;
4519;SDS011;2272;49.226;8.108;2023-06-14T05:51:23;6.17;;;5.00;;
4519;SDS011;2272;49.226;8.108;2023-06-14T05:53:51;5.47;;;4.97;;
4519;SDS011;2272;49.226;8.108;2023-06-14T05:56:18;16.43;;;5.97;;
4519;SDS011;2272;49.226;8.108;2023-06-14T05:58:46;7.87;;;4.87;;
4519;SDS011;2272;49.226;8.108;2023-06-14T06:01:13;16.83;;;9.23;;
4519;SDS011;2272;49.226;8.108;2023-06-14T06:03:40;6.97;;;5.17;;
4519;SDS011;2272;49.226;8.108;2023-06-14T06:06:10;7.97;;;6.27;;
4519;SDS011;2272;49.226;8.108;2023-06-14T06:08:37;19.07;;;6.07;;
4519;SDS011;2272;49.226;8.108;2023-06-14T06:11:04;6.03;;;5.37;;
4519;SDS011;2272;49.226;8.108;2023-06-14T06:13:30;8.87;;;6.10;;
4519;SDS011;2272;49.226;8.108;2023-06-14T06:15:59;9.17;;;5.20;;
4519;SDS011;2272;49.226;8.108;2023-06-14T06:18:25;13.90;;;6.27;;
4519;SDS011;2272;49.226;8.108;2023-06-14T06:20:52;12.50;;;5.70;;
4519;SDS011;2272;49.226;8.108;2023-06-14T06:23:19;6.50;;;5.87;;
4519;SDS011;2272;49.226;8.108;2023-06-14T06:25:45;6.70;;;6.00;;
4519;SDS011;2272;49.226;8.108;2023-06-14T06:28:12;9.20;;;5.37;;
4519;SDS011;2272;49.226;8.108;2023-06-14T06:30:38;11.03;;;5.40;;
4519;SDS011;2272;49.226;8.108;2023-06-14T06:33:06;10.30;;;5.40;;
4519;SDS011;2272;49.226;8.108;2023-06-14T06:35:33;11.30;;;5.50;;
4519;SDS011;2272;49.226;8.108;2023-06-14T06:38:00;9.07;;;5.37;;
4519;SDS011;2272;49.226;8.108;2023-06-14T06:40:26;6.93;;;5.47;;
4519;SDS011;2272;49.226;8.108;2023-06-14T06:42:53;8.40;;;5.70;;
4519;SDS011;2272;49.226;8.108;2023-06-14T06:45:20;7.17;;;5.53;;
4519;SDS011;2272;49.226;8.108;2023-06-14T06:47:48;7.43;;;5.57;;
4519;SDS011;2272;49.226;8.108;2023-06-14T06:50:17;17.93;;;6.57;;
4519;SDS011;2272;49.226;8.108;2023-06-14T06:52:44;22.97;;;7.37;;
4519;SDS011;2272;49.226;8.108;2023-06-14T06:55:11;11.53;;;5.50;;
4519;SDS011;2272;49.226;8.108;2023-06-14T06:57:38;10.30;;;6.03;;
4519;SDS011;2272;49.226;8.108;2023-06-14T07:00:05;19.00;;;6.37;;
4519;SDS011;2272;49.226;8.108;2023-06-14T07:02:34;14.53;;;5.90;;
4519;SDS011;2272;49.226;8.108;2023-06-14T07:05:01;12.43;;;6.50;;
4519;SDS011;2272;49.226;8.108;2023-06-14T07:07:29;7.33;;;5.23;;
4519;SDS011;2272;49.226;8.108;2023-06-14T07:09:56;18.63;;;7.30;;
4519;SDS011;2272;49.226;8.108;2023-06-14T07:12:23;7.57;;;6.20;;
4519;SDS011;2272;49.226;8.108;2023-06-14T07:14:50;14.20;;;6.30;;
4519;SDS011;2272;49.226;8.108;2023-06-14T07:17:17;9.07;;;6.40;;
4519;SDS011;2272;49.226;8.108;2023-06-14T07:19:43;9.30;;;5.97;;
4519;SDS011;2272;49.226;8.108;2023-06-14T07:22:10;9.80;;;6.73;;
4519;SDS011;2272;49.226;8.108;2023-06-14T07:24:38;8.53;;;6.63;;
4519;SDS011;2272;49.226;8.108;2023-06-14T07:27:05;10.80;;;5.73;;
4519;SDS011;2272;49.226;8.108;2023-06-14T07:29:32;7.20;;;6.47;;
4519;SDS011;2272;49.226;8.108;2023-06-14T07:31:59;21.07;;;6.10;;
4519;SDS011;2272;49.226;8.108;2023-06-14T07:34:26;7.60;;;5.90;;
4519;SDS011;2272;49.226;8.108;2023-06-14T07:36:53;8.10;;;6.00;;
4519;SDS011;2272;49.226;8.108;2023-06-14T07:39:20;16.07;;;7.17;;
4519;SDS011;2272;49.226;8.108;2023-06-14T07:41:48;11.97;;;6.03;;
4519;SDS011;2272;49.226;8.108;2023-06-14T07:44:15;6.37;;;5.77;;
4519;SDS011;2272;49.226;8.108;2023-06-14T07:46:42;9.20;;;5.90;;
4519;SDS011;2272;49.226;8.108;2023-06-14T07:49:09;17.07;;;6.30;;
4519;SDS011;2272;49.226;8.108;2023-06-14T07:51:35;20.67;;;6.50;;
4519;SDS011;2272;49.226;8.108;2023-06-14T07:54:02;8.73;;;5.80;;
4519;SDS011;2272;49.226;8.108;2023-06-14T07:56:29;19.33;;;6.20;;
4519;SDS011;2272;49.226;8.108;2023-06-14T07:58:57;15.23;;;6.27;;
4519;SDS011;2272;49.226;8.108;2023-06-14T08:01:24;18.67;;;6.40;;
4519;SDS011;2272;49.226;8.108;2023-06-14T08:03:52;22.33;;;6.80;;
4519;SDS011;2272;49.226;8.108;2023-06-14T08:06:19;7.10;;;6.30;;
4519;SDS011;2272;49.226;8.108;2023-06-14T08:08:46;6.70;;;6.10;;
4519;SDS011;2272;49.226;8.108;2023-06-14T08:11:12;15.83;;;6.17;;
4519;SDS011;2272;49.226;8.108;2023-06-14T08:13:39;8.20;;;6.50;;
4519;SDS011;2272;49.226;8.108;2023-06-14T08:16:07;9.37;;;6.97;;
4519;SDS011;2272;49.226;8.108;2023-06-14T08:18:34;7.50;;;6.30;;
4519;SDS011;2272;49.226;8.108;2023-06-14T08:21:00;13.20;;;6.47;;
4519;SDS011;2272;49.226;8.108;2023-06-14T08:23:27;12.03;;;6.73;;
4519;SDS011;2272;49.226;8.108;2023-06-14T08:25:54;12.23;;;6.60;;
4519;SDS011;2272;49.226;8.108;2023-06-14T08:28:21;12.20;;;5.80;;
4519;SDS011;2272;49.226;8.108;2023-06-14T08:30:50;13.23;;;6.03;;
4519;SDS011;2272;49.226;8.108;2023-06-14T08:33:18;6.83;;;5.80;;
4519;SDS011;2272;49.226;8.108;2023-06-14T08:35:44;7.67;;;5.93;;
4519;SDS011;2272;49.226;8.108;2023-06-14T08:38:11;10.77;;;6.80;;
4519;SDS011;2272;49.226;8.108;2023-06-14T08:40:38;9.20;;;5.67;;
4519;SDS011;2272;49.226;8.108;2023-06-14T08:43:07;6.23;;;5.73;;
4519;SDS011;2272;49.226;8.108;2023-06-14T08:45:34;12.77;;;5.80;;
4519;SDS011;2272;49.226;8.108;2023-06-14T08:48:00;8.17;;;5.60;;
4519;SDS011;2272;49.226;8.108;2023-06-14T08:50:29;15.43;;;6.50;;
4519;SDS011;2272;49.226;8.108;2023-06-14T08:52:59;12.40;;;6.83;;
4519;SDS011;2272;49.226;8.108;2023-06-14T08:55:28;8.83;;;5.63;;
4519;SDS011;2272;49.226;8.108;2023-06-14T08:57:56;19.43;;;6.40;;
4519;SDS011;2272;49.226;8.108;2023-06-14T09:00:24;7.23;;;6.50;;
4519;SDS011;2272;49.226;8.108;2023-06-14T09:02:51;12.30;;;5.83;;
4519;SDS011;2272;49.226;8.108;2023-06-14T09:05:22;15.90;;;5.80;;
4519;SDS011;2272;49.226;8.108;2023-06-14T09:07:51;11.53;;;5.70;;
4519;SDS011;2272;49.226;8.108;2023-06-14T09:10:21;9.67;;;5.30;;
4519;SDS011;2272;49.226;8.108;2023-06-14T09:12:50;18.33;;;6.00;;
4519;SDS011;2272;49.226;8.108;2023-06-14T09:15:17;12.40;;;5.70;;
4519;SDS011;2272;49.226;8.108;2023-06-14T09:17:44;12.37;;;5.57;;
4519;SDS011;2272;49.226;8.108;2023-06-14T09:20:11;8.50;;;6.67;;
4519;SDS011;2272;49.226;8.108;2023-06-14T09:22:43;9.70;;;5.20;;
4519;SDS011;2272;49.226;8.108;2023-06-14T09:25:11;6.63;;;5.10;;
4519;SDS011;2272;49.226;8.108;2023-06-14T09:27:40;6.33;;;5.17;;
4519;SDS011;2272;49.226;8.108;2023-06-14T09:30:08;8.33;;;5.73;;
4519;SDS011;2272;49.226;8.108;2023-06-14T09:32:36;7.50;;;5.80;;
4519;SDS011;2272;49.226;8.108;2023-06-14T09:35:05;11.00;;;4.70;;
4519;SDS011;2272;49.226;8.108;2023-06-14T09:37:33;6.03;;;4.00;;
4519;SDS011;2272;49.226;8.108;2023-06-14T09:40:02;6.50;;;5.33;;
4519;SDS011;2272;49.226;8.108;2023-06-14T09:42:32;9.80;;;5.67;;
4519;SDS011;2272;49.226;8.108;2023-06-14T09:45:00;10.70;;;4.83;;
4519;SDS011;2272;49.226;8.108;2023-06-14T09:47:28;19.73;;;4.67;;
4519;SDS011;2272;49.226;8.108;2023-06-14T09:49:55;10.50;;;4.57;;
4519;SDS011;2272;49.226;8.108;2023-06-14T09:52:22;5.23;;;4.73;;
4519;SDS011;2272;49.226;8.108;2023-06-14T09:54:49;4.37;;;4.07;;
4519;SDS011;2272;49.226;8.108;2023-06-14T09:57:16;18.37;;;4.60;;
4519;SDS011;2272;49.226;8.108;2023-06-14T09:59:51;5.73;;;4.40;;
4519;SDS011;2272;49.226;8.108;2023-06-14T10:02:24;5.17;;;4.70;;
4519;SDS011;2272;49.226;8.108;2023-06-14T10:04:53;5.73;;;4.77;;
4519;SDS011;2272;49.226;8.108;2023-06-14T10:07:26;13.27;;;5.00;;
4519;SDS011;2272;49.226;8.108;2023-06-14T10:09:56;4.53;;;4.13;;
4519;SDS011;2272;49.226;8.108;2023-06-14T10:12:23;17.83;;;4.33;;
4519;SDS011;2272;49.226;8.108;2023-06-14T10:14:51;8.20;;;5.17;;
4519;SDS011;2272;49.226;8.108;2023-06-14T10:17:20;8.00;;;3.93;;
4519;SDS011;2272;49.226;8.108;2023-06-14T10:19:54;9.43;;;4.10;;
4519;SDS011;2272;49.226;8.108;2023-06-14T10:22:26;4.27;;;3.83;;
4519;SDS011;2272;49.226;8.108;2023-06-14T10:24:58;6.53;;;4.50;;
4519;SDS011;2272;49.226;8.108;2023-06-14T10:27:26;11.40;;;4.83;;
4519;SDS011;2272;49.226;8.108;2023-06-14T10:30:04;11.10;;;4.37;;
4519;SDS011;2272;49.226;8.108;2023-06-14T10:32:33;4.40;;;4.00;;
4519;SDS011;2272;49.226;8.108;2023-06-14T10:35:00;15.47;;;5.63;;
4519;SDS011;2272;49.226;8.108;2023-06-14T10:37:27;19.17;;;4.10;;
4519;SDS011;2272;49.226;8.108;2023-06-14T10:39:54;9.43;;;4.47;;
4519;SDS011;2272;49.226;8.108;2023-06-14T10:42:21;10.90;;;4.33;;
4519;SDS011;2272;49.226;8.108;2023-06-14T10:44:53;5.17;;;4.23;;
4519;SDS011;2272;49.226;8.108;2023-06-14T10:47:23;9.60;;;4.43;;
4519;SDS011;2272;49.226;8.108;2023-06-14T10:49:52;9.60;;;4.47;;
4519;SDS011;2272;49.226;8.108;2023-06-14T10:52:24;5.80;;;3.77;;
4519;SDS011;2272;49.226;8.108;2023-06-14T10:55:03;9.23;;;4.00;;
4519;SDS011;2272;49.226;8.108;2023-06-14T10:57:34;4.60;;;4.20;;
4519;SDS011;2272;49.226;8.108;2023-06-14T11:00:02;13.43;;;4.30;;
4519;SDS011;2272;49.226;8.108;2023-06-14T11:02:46;6.80;;;4.27;;
4519;SDS011;2272;49.226;8.108;2023-06-14T11:05:33;4.27;;;3.97;;
4519;SDS011;2272;49.226;8.108;2023-06-14T11:08:17;6.90;;;4.33;;
4519;SDS011;2272;49.226;8.108;2023-06-14T11:11:05;8.10;;;3.47;;
4519;SDS011;2272;49.226;8.108;2023-06-14T11:13:33;3.63;;;3.33;;
4519;SDS011;2272;49.226;8.108;2023-06-14T11:16:02;4.57;;;3.40;;
4519;SDS011;2272;49.226;8.108;2023-06-14T11:18:38;6.40;;;4.17;;
4519;SDS011;2272;49.226;8.108;2023-06-14T11:21:04;6.10;;;3.27;;
4519;SDS011;2272;49.226;8.108;2023-06-14T11:23:32;6.90;;;4.37;;
4519;SDS011;2272;49.226;8.108;2023-06-14T11:25:58;4.90;;;3.87;;
4519;SDS011;2272;49.226;8.108;2023-06-14T11:28:34;6.20;;;3.67;;
4519;SDS011;2272;49.226;8.108;2023-06-14T11:31:02;19.40;;;4.87;;
4519;SDS011;2272;49.226;8.108;2023-06-14T11:33:29;5.83;;;3.50;;
4519;SDS011;2272;49.226;8.108;2023-06-14T11:35:57;7.07;;;3.17;;
4519;SDS011;2272;49.226;8.108;2023-06-14T11:38:24;10.40;;;3.50;;
4519;SDS011;2272;49.226;8.108;2023-06-14T11:40:51;4.43;;;3.40;;
4519;SDS011;2272;49.226;8.108;2023-06-14T11:43:18;2.87;;;2.77;;
4519;SDS011;2272;49.226;8.108;2023-06-14T11:45:47;5.03;;;3.73;;
4519;SDS011;2272;49.226;8.108;2023-06-14T11:48:14;2.73;;;2.57;;
4519;SDS011;2272;49.226;8.108;2023-06-14T11:50:41;6.33;;;3.27;;
4519;SDS011;2272;49.226;8.108;2023-06-14T11:53:09;27.23;;;4.00;;
4519;SDS011;2272;49.226;8.108;2023-06-14T11:55:36;3.43;;;3.13;;
4519;SDS011;2272;49.226;8.108;2023-06-14T11:58:04;3.00;;;2.73;;
4519;SDS011;2272;49.226;8.108;2023-06-14T12:00:31;3.30;;;3.10;;
4519;SDS011;2272;49.226;8.108;2023-06-14T12:02:57;3.90;;;3.47;;
4519;SDS011;2272;49.226;8.108;2023-06-14T12:05:25;3.33;;;3.07;;
4519;SDS011;2272;49.226;8.108;2023-06-14T12:07:57;6.67;;;3.60;;
4519;SDS011;2272;49.226;8.108;2023-06-14T12:10:26;2.83;;;2.63;;
4519;SDS011;2272;49.226;8.108;2023-06-14T12:12:58;6.87;;;3.70;;
4519;SDS011;2272;49.226;8.108;2023-06-14T12:15:27;9.60;;;3.00;;
4519;SDS011;2272;49.226;8.108;2023-06-14T12:17:55;10.33;;;3.60;;
4519;SDS011;2272;49.226;8.108;2023-06-14T12:20:21;6.63;;;3.43;;
4519;SDS011;2272;49.226;8.108;2023-06-14T12:22:52;4.70;;;3.10;;
4519;SDS011;2272;49.226;8.108;2023-06-14T12:25:29;14.87;;;4.30;;
4519;SDS011;2272;49.226;8.108;2023-06-14T12:27:57;7.23;;;3.20;;
4519;SDS011;2272;49.226;8.108;2023-06-14T12:30:24;4.07;;;3.70;;
4519;SDS011;2272;49.226;8.108;2023-06-14T12:32:51;4.93;;;2.90;;
4519;SDS011;2272;49.226;8.108;2023-06-14T12:35:18;3.87;;;3.50;;
4519;SDS011;2272;49.226;8.108;2023-06-14T12:37:45;4.10;;;3.07;;
4519;SDS011;2272;49.226;8.108;2023-06-14T12:40:11;4.63;;;3.50;;
4519;SDS011;2272;49.226;8.108;2023-06-14T12:42:40;4.20;;;3.80;;
4519;SDS011;2272;49.226;8.108;2023-06-14T12:45:07;6.40;;;3.53;;
4519;SDS011;2272;49.226;8.108;2023-06-14T12:47:35;3.43;;;3.13;;
4519;SDS011;2272;49.226;8.108;2023-06-14T12:50:02;3.63;;;3.40;;
4519;SDS011;2272;49.226;8.108;2023-06-14T12:52:29;2.93;;;2.80;;
4519;SDS011;2272;49.226;8.108;2023-06-14T12:54:56;3.70;;;3.20;;
4519;SDS011;2272;49.226;8.108;2023-06-14T12:57:23;3.10;;;2.80;;
4519;SDS011;2272;49.226;8.108;2023-06-14T12:59:51;7.50;;;3.50;;
4519;SDS011;2272;49.226;8.108;2023-06-14T13:02:18;7.23;;;3.30;;
4519;SDS011;2272;49.226;8.108;2023-06-14T13:04:47;6.10;;;3.63;;
4519;SDS011;2272;49.226;8.108;2023-06-14T13:07:14;4.47;;;3.27;;
4519;SDS011;2272;49.226;8.108;2023-06-14T13:09:41;4.20;;;3.10;;
4519;SDS011;2272;49.226;8.108;2023-06-14T13:12:08;5.50;;;3.47;;
4519;SDS011;2272;49.226;8.108;2023-06-14T13:14:37;5.57;;;3.93;;
4519;SDS011;2272;49.226;8.108;2023-06-14T13:17:05;3.50;;;3.20;;
4519;SDS011;2272;49.226;8.108;2023-06-14T13:19:32;4.20;;;3.63;;
4519;SDS011;2272;49.226;8.108;2023-06-14T13:21:58;3.83;;;3.30;;
4519;SDS011;2272;49.226;8.108;2023-06-14T13:24:25;3.20;;;3.00;;
4519;SDS011;2272;49.226;8.108;2023-06-14T13:26:53;3.77;;;3.43;;
4519;SDS011;2272;49.226;8.108;2023-06-14T13:29:20;4.73;;;3.40;;
4519;SDS011;2272;49.226;8.108;2023-06-14T13:31:46;6.50;;;3.67;;
4519;SDS011;2272;49.226;8.108;2023-06-14T13:34:14;5.80;;;3.10;;
4519;SDS011;2272;49.226;8.108;2023-06-14T13:36:41;3.20;;;3.00;;
4519;SDS011;2272;49.226;8.108;2023-06-14T13:39:08;3.90;;;3.60;;
4519;SDS011;2272;49.226;8.108;2023-06-14T13:41:35;10.20;;;3.60;;
4519;SDS011;2272;49.226;8.108;2023-06-14T13:44:02;4.60;;;3.17;;
4519;SDS011;2272;49.226;8.108;2023-06-14T13:46:30;3.83;;;2.80;;
4519;SDS011;2272;49.226;8.108;2023-06-14T13:48:57;5.70;;;3.50;;
4519;SDS011;2272;49.226;8.108;2023-06-14T13:51:26;11.03;;;3.20;;
4519;SDS011;2272;49.226;8.108;2023-06-14T13:53:54;5.77;;;3.90;;
4519;SDS011;2272;49.226;8.108;2023-06-14T13:56:20;4.43;;;3.20;;
4519;SDS011;2272;49.226;8.108;2023-06-14T13:58:49;3.93;;;3.60;;
4519;SDS011;2272;49.226;8.108;2023-06-14T14:01:16;4.20;;;3.80;;
4519;SDS011;2272;49.226;8.108;2023-06-14T14:03:44;13.30;;;3.90;;
4519;SDS011;2272;49.226;8.108;2023-06-14T14:06:11;5.30;;;3.13;;
4519;SDS011;2272;49.226;8.108;2023-06-14T14:08:40;6.00;;;3.40;;
4519;SDS011;2272;49.226;8.108;2023-06-14T14:11:07;9.67;;;3.60;;
4519;SDS011;2272;49.226;8.108;2023-06-14T14:13:34;10.40;;;3.40;;
4519;SDS011;2272;49.226;8.108;2023-06-14T14:16:01;5.67;;;3.83;;
4519;SDS011;2272;49.226;8.108;2023-06-14T14:18:28;5.33;;;3.50;;
4519;SDS011;2272;49.226;8.108;2023-06-14T14:20:55;10.63;;;3.17;;
4519;SDS011;2272;49.226;8.108;2023-06-14T14:23:23;3.77;;;3.27;;
4519;SDS011;2272;49.226;8.108;2023-06-14T14:25:51;7.60;;;3.50;;
4519;SDS011;2272;49.226;8.108;2023-06-14T14:28:18;5.77;;;4.43;;
4519;SDS011;2272;49.226;8.108;2023-06-14T14:30:45;23.90;;;4.43;;
4519;SDS011;2272;49.226;8.108;2023-06-14T14:33:12;9.47;;;3.63;;
4519;SDS011;2272;49.226;8.108;2023-06-14T14:35:40;6.03;;;2.90;;
4519;SDS011;2272;49.226;8.108;2023-06-14T14:38:08;3.80;;;3.60;;
4519;SDS011;2272;49.226;8.108;2023-06-14T14:40:35;7.37;;;3.77;;
4519;SDS011;2272;49.226;8.108;2023-06-14T14:43:03;6.80;;;6.20;;
4519;SDS011;2272;49.226;8.108;2023-06-14T14:45:30;3.90;;;3.60;;
4519;SDS011;2272;49.226;8.108;2023-06-14T14:47:56;3.80;;;3.50;;
4519;SDS011;2272;49.226;8.108;2023-06-14T14:50:24;4.13;;;3.80;;
4519;SDS011;2272;49.226;8.108;2023-06-14T14:52:51;4.87;;;4.20;;
4519;SDS011;2272;49.226;8.108;2023-06-14T14:55:18;11.20;;;3.97;;
4519;SDS011;2272;49.226;8.108;2023-06-14T14:57:45;9.53;;;4.57;;
4519;SDS011;2272;49.226;8.108;2023-06-14T15:00:14;6.40;;;3.60;;
4519;SDS011;2272;49.226;8.108;2023-06-14T15:02:41;3.83;;;3.63;;
4519;SDS011;2272;49.226;8.108;2023-06-14T15:05:07;3.90;;;3.27;;
4519;SDS011;2272;49.226;8.108;2023-06-14T15:07:34;6.90;;;4.70;;
4519;SDS011;2272;49.226;8.108;2023-06-14T15:10:01;3.40;;;3.20;;
4519;SDS011;2272;49.226;8.108;2023-06-14T15:12:29;4.27;;;3.83;;
4519;SDS011;2272;49.226;8.108;2023-06-14T15:14:56;4.67;;;3.50;;